KCAR/CAR METAR and TAF weather

Enter ICAO airport designator
Station Type Date Time Source
KCAR METAR 2019/10/23 14:25 UTC NOAA

KCAR 231425Z AUTO 02005KT 1 1/2SM RA BR BKN005 BKN008 OVC016 07/06 A2989 RMK AO2 P0010 T00720061


Station Type Date Time Source
KCAR Decoded METAR 2019/10/23 14:25 UTC NOAA

CARIBOU MUNICIPAL AIRPORT, ME, United States (KCAR) 46-52N 68-01W 191M
Oct 23, 2019 - 10:25 AM EDT / 2019.10.23 1425 UTC
Wind: from the NNE (020 degrees) at 6 MPH (5 KT):0
Visibility: 1 1/2 mile(s):0
Sky conditions: overcast
Weather: rain; mist
Precipitation last hour: 0.10 inches
Temperature: 45.0 F (7.2 C)
Dew Point: 43.0 F (6.1 C)
Relative Humidity: 92%
Pressure (altimeter): 29.89 in. Hg (1012 hPa)
ob: KCAR 231425Z AUTO 02005KT 1 1/2SM RA BR BKN005 BKN008 OVC016 07/06 A2989 RMK AO2 P0010 T00720061
cycle: 14

Station Type Date Time Source
KCAR TAF 2019/10/23 13:24 UTC NOAA

TAF
AMD KCAR 231321Z 2313/2412 10010KT 2SM -RA BR OVC007
FM231500 10012G22KT 1SM RA BR OVC008
FM231900 06008KT 3SM -RA BR OVC006
FM232200 26005KT P6SM VCSH OVC020
FM240000 27007KT P6SM BKN035

Example: see airport list